Time;durP1;ratioP1;P1;durP2;ratioP2;P2;SDS_P1;SDS_P2;PMS_P1;PMS_P2;Temp;Humidity;BMP_temperature;BMP_pressure;BME280_temperature;BME280_humidity;BME280_pressure;Samples;Min_cycle;Max_cycle;Signal;HPM_P1;HPM_P2
2021/04/25 00:00:33;;;;;;;10.23;5.00;;;;;;;5.75;100.00;102786.19;3562274;40;20285;-60
2021/04/25 00:02:59;;;;;;;11.70;6.10;;;;;;;5.66;100.00;102789.22;3567200;40;20071;-59
2021/04/25 00:05:25;;;;;;;14.10;5.38;;;;;;;5.56;100.00;102780.66;3568812;40;20049;-63
2021/04/25 00:07:51;;;;;;;10.50;4.93;;;;;;;5.49;100.00;102779.16;3567533;40;20056;-59
2021/04/25 00:10:21;;;;;;;11.07;5.30;;;;;;;5.40;100.00;102774.13;3566750;40;20321;-58
2021/04/25 00:12:47;;;;;;;;;;;;;;;5.31;100.00;102779.81;3569503;40;20169;-59
2021/04/25 00:15:17;;;;;;;9.20;5.05;;;;;;;5.23;100.00;102772.09;3567976;40;19939;-59
2021/04/25 00:17:43;;;;;;;11.10;5.22;;;;;;;5.16;100.00;102782.09;3568865;40;20426;-59
2021/04/25 00:20:10;;;;;;;8.32;4.57;;;;;;;5.16;100.00;102765.22;3570107;40;20059;-64
2021/04/25 00:22:36;;;;;;;10.35;5.05;;;;;;;5.15;100.00;102774.13;3571972;40;20070;-62
2021/04/25 00:25:03;;;;;;;10.75;4.72;;;;;;;5.18;100.00;102768.69;3568987;40;20052;-61
2021/04/25 00:27:30;;;;;;;9.43;5.05;;;;;;;5.05;100.00;102763.78;3568946;40;20045;-59
2021/04/25 00:29:56;;;;;;;11.95;5.45;;;;;;;5.02;100.00;102773.69;3568019;40;20050;-62
2021/04/25 00:32:22;;;;;;;10.30;4.97;;;;;;;4.96;100.00;102779.25;3569848;40;20060;-60
2021/04/25 00:34:48;;;;;;;12.27;5.43;;;;;;;5.00;100.00;102776.41;3568901;40;20522;-61
2021/04/25 00:37:15;;;;;;;14.45;5.85;;;;;;;4.87;100.00;102781.31;3568883;40;20342;-60
2021/04/25 00:39:41;;;;;;;10.40;5.32;;;;;;;4.86;100.00;102774.22;3570453;40;20067;-60
2021/04/25 00:42:07;;;;;;;9.38;5.50;;;;;;;4.91;100.00;102779.41;3570727;40;20421;-62
2021/04/25 00:44:34;;;;;;;9.60;4.68;;;;;;;4.91;100.00;102774.91;3571994;40;20061;-60
2021/04/25 00:47:00;;;;;;;10.23;4.93;;;;;;;4.91;100.00;102774.91;3567651;40;20053;-59
2021/04/25 00:49:27;;;;;;;12.38;5.90;;;;;;;4.98;100.00;102778.28;3567183;40;20181;-59
2021/04/25 00:51:53;;;;;;;11.18;5.55;;;;;;;5.07;100.00;102782.41;3568688;40;20089;-61
2021/04/25 00:54:19;;;;;;;9.55;5.07;;;;;;;5.15;100.00;102782.16;3567162;40;20049;-60
2021/04/25 00:56:46;;;;;;;10.75;5.20;;;;;;;5.16;100.00;102781.22;3568804;40;20096;-59
2021/04/25 00:59:12;;;;;;;10.43;5.15;;;;;;;5.19;100.00;102776.66;3567585;40;20394;-60
2021/04/25 01:01:38;;;;;;;9.52;5.13;;;;;;;5.24;100.00;102773.81;3568610;40;20041;-59
2021/04/25 01:04:05;;;;;;;9.57;5.10;;;;;;;5.18;100.00;102780.25;3569273;40;20456;-59
2021/04/25 01:06:31;;;;;;;12.50;5.35;;;;;;;5.17;100.00;102781.19;3570538;40;20038;-59
2021/04/25 01:08:57;;;;;;;10.05;5.15;;;;;;;5.22;100.00;102776.53;3570459;40;20128;-59
2021/04/25 01:11:23;;;;;;;10.10;4.93;;;;;;;5.31;100.00;102779.81;3570919;40;20370;-59
2021/04/25 01:13:51;;;;;;;8.65;4.40;;;;;;;5.26;100.00;102774.66;3569606;40;20053;-60
2021/04/25 01:16:17;;;;;;;8.98;4.63;;;;;;;5.28;100.00;102774.59;3571398;40;20049;-59
2021/04/25 01:18:44;;;;;;;10.68;4.18;;;;;;;5.33;100.00;102769.94;3571248;40;20041;-60
2021/04/25 01:21:11;;;;;;;9.07;3.90;;;;;;;5.38;100.00;102770.66;3572183;40;20089;-62
2021/04/25 01:23:37;;;;;;;8.90;4.32;;;;;;;5.38;100.00;102768.00;3570667;40;20136;-60
2021/04/25 01:26:03;;;;;;;10.57;3.53;;;;;;;5.38;100.00;102765.31;3571800;40;20127;-59
2021/04/25 01:28:29;;;;;;;6.03;3.40;;;;;;;5.39;100.00;102767.06;3569995;40;20148;-60
2021/04/25 01:30:56;;;;;;;6.45;3.20;;;;;;;5.39;100.00;102761.72;3571146;40;20060;-61
2021/04/25 01:33:22;;;;;;;6.82;2.90;;;;;;;5.44;100.00;102771.28;3569311;40;20146;-59
2021/04/25 01:38:15;;;;;;;6.38;3.03;;;;;;;5.42;100.00;102774.97;3561506;23;20053;-59
2021/04/25 01:40:41;;;;;;;9.00;3.58;;;;;;;5.48;100.00;102774.75;3580963;40;20092;-63
2021/04/25 01:43:07;;;;;;;9.38;3.40;;;;;;;5.48;100.00;102777.41;3580883;40;20060;-59
2021/04/25 01:45:33;;;;;;;6.05;2.97;;;;;;;5.47;100.00;102770.31;3580736;40;20048;-60
2021/04/25 01:48:01;;;;;;;5.45;3.00;;;;;;;5.54;100.00;102774.50;3581013;40;20426;-62
2021/04/25 01:50:28;;;;;;;10.25;3.47;;;;;;;5.58;100.00;102777.94;3580990;40;20045;-61
2021/04/25 01:52:56;;;;;;;11.32;3.45;;;;;;;5.51;100.00;102782.66;3580185;40;20044;-63
2021/04/25 01:55:23;;;;;;;5.75;3.03;;;;;;;5.52;100.00;102773.72;3580528;40;20069;-60
2021/04/25 01:57:50;;;;;;;6.70;3.30;;;;;;;5.58;100.00;102786.84;3579184;40;20052;-59
2021/04/25 02:00:19;;;;;;;7.68;3.10;;;;;;;5.53;100.00;102780.78;3580736;40;20064;-62
2021/04/25 02:02:46;;;;;;;9.57;3.50;;;;;;;5.48;100.00;102774.75;3580117;40;20053;-61
2021/04/25 02:05:13;;;;;;;5.50;3.05;;;;;;;5.53;100.00;102780.78;3579323;40;20053;-61
2021/04/25 02:07:39;;;;;;;10.00;3.47;;;;;;;5.57;100.00;102774.41;3580079;40;20304;-59
2021/04/25 02:10:07;;;;;;;11.63;3.80;;;;;;;5.53;100.00;102775.44;3579433;40;20053;-61
2021/04/25 02:12:34;;;;;;;9.67;3.93;;;;;;;5.55;100.00;102786.94;3580006;40;20076;-58
2021/04/25 02:15:01;;;;;;;7.28;3.53;;;;;;;5.52;100.00;102781.72;3580271;40;20048;-59
2021/04/25 02:17:27;;;;;;;8.38;3.42;;;;;;;5.58;100.00;102773.47;3580354;40;20141;-59
2021/04/25 02:19:53;;;;;;;6.95;3.40;;;;;;;5.55;100.00;102773.59;3579587;40;20048;-61
2021/04/25 02:22:19;;;;;;;7.43;3.40;;;;;;;5.63;100.00;102775.97;3580128;40;20408;-61
2021/04/25 02:24:45;;;;;;;7.65;3.83;;;;;;;5.61;100.00;102773.38;3579736;40;20037;-60
2021/04/25 02:27:11;;;;;;;10.23;3.95;;;;;;;5.75;100.00;102767.50;3581234;40;20316;-62
2021/04/25 02:29:37;;;;;;;8.32;3.42;;;;;;;5.73;100.00;102771.19;3579929;40;20035;-58
2021/04/25 02:32:04;;;;;;;7.75;3.63;;;;;;;5.64;100.00;102774.16;3580468;40;20049;-61
2021/04/25 02:34:30;;;;;;;9.43;3.45;;;;;;;5.59;100.00;102764.53;3578572;40;20134;-59
2021/04/25 02:36:56;;;;;;;6.60;3.13;;;;;;;5.61;100.00;102768.03;3579863;40;20056;-59
2021/04/25 02:39:22;;;;;;;9.48;3.80;;;;;;;5.68;100.00;102767.78;3578831;40;20068;-59
2021/04/25 02:41:48;;;;;;;8.35;3.67;;;;;;;5.69;100.00;102758.84;3581103;40;20404;-59
2021/04/25 02:44:14;;;;;;;9.07;3.60;;;;;;;5.64;100.00;102756.34;3579633;40;20063;-60
2021/04/25 02:46:41;;;;;;;9.45;3.47;;;;;;;5.72;100.00;102764.94;3579543;40;20292;-59
2021/04/25 02:49:07;;;;;;;8.35;3.35;;;;;;;5.64;100.00;102755.47;3579122;40;20368;-59
2021/04/25 02:51:33;;;;;;;8.30;3.22;;;;;;;5.50;100.00;102762.19;3581283;40;20061;-60
2021/04/25 02:53:59;;;;;;;7.43;3.17;;;;;;;5.61;100.00;102764.50;3579335;40;20061;-60
2021/04/25 02:56:25;;;;;;;7.13;2.95;;;;;;;5.53;100.00;102763.88;3580466;40;20157;-59
2021/04/25 02:58:51;;;;;;;5.75;2.60;;;;;;;5.53;100.00;102762.06;3580445;40;20399;-60
2021/04/25 03:01:17;;;;;;;9.35;3.33;;;;;;;5.56;100.00;102761.97;3578923;40;20142;-61
2021/04/25 03:03:46;;;;;;;9.98;3.20;;;;;;;5.55;100.00;102762.91;3579850;40;20395;-61
2021/04/25 03:06:12;;;;;;;7.53;2.88;;;;;;;5.52;100.00;102764.81;3580623;40;20319;-61
2021/04/25 03:08:38;;;;;;;6.60;2.70;;;;;;;5.40;100.00;102760.78;3580451;40;20052;-62
2021/04/25 03:11:04;;;;;;;7.32;2.65;;;;;;;5.45;100.00;102756.16;3581182;40;20089;-60
2021/04/25 03:13:30;;;;;;;8.50;2.60;;;;;;;5.48;100.00;102766.72;3580406;40;20405;-60
2021/04/25 03:15:56;;;;;;;8.32;2.85;;;;;;;5.40;100.00;102758.13;3581690;40;20047;-63
2021/04/25 03:18:22;;;;;;;11.50;3.28;;;;;;;5.38;100.00;102754.63;3580746;40;20052;-59
2021/04/25 03:20:49;;;;;;;7.15;2.83;;;;;;;5.39;100.00;102757.25;3582281;40;20040;-59
2021/04/25 03:23:15;;;;;;;7.18;2.45;;;;;;;5.42;100.00;102757.13;3579694;40;20033;-60
2021/04/25 03:25:41;;;;;;;8.07;2.40;;;;;;;5.48;100.00;102758.72;3581953;40;20040;-62
2021/04/25 03:28:07;;;;;;;6.25;2.53;;;;;;;5.44;100.00;102760.63;3581685;40;20057;-59
2021/04/25 03:30:33;;;;;;;8.18;2.78;;;;;;;5.35;100.00;102752.09;3581834;40;20029;-59
2021/04/25 03:32:59;;;;;;;6.40;2.53;;;;;;;5.37;100.00;102752.88;3581366;40;20044;-60
2021/04/25 03:35:26;;;;;;;6.70;2.53;;;;;;;5.41;100.00;102754.53;3582078;40;20092;-60
2021/04/25 03:37:53;;;;;;;6.55;2.25;;;;;;;5.41;100.00;102754.53;3581569;40;20082;-63
2021/04/25 03:40:20;;;;;;;11.13;2.90;;;;;;;5.40;100.00;102752.78;3580801;40;20492;-60
2021/04/25 03:42:46;;;;;;;5.32;2.20;;;;;;;5.42;100.00;102758.94;3581829;40;20033;-61
2021/04/25 03:45:14;;;;;;;7.25;2.13;;;;;;;5.41;100.00;102750.03;3581023;40;20088;-60
2021/04/25 03:47:42;;;;;;;7.53;2.38;;;;;;;5.37;100.00;102758.22;3581160;40;20053;-62
2021/04/25 03:50:09;;;;;;;5.32;2.33;;;;;;;5.29;100.00;102753.16;3580941;40;20045;-62
2021/04/25 03:52:35;;;;;;;5.35;2.20;;;;;;;5.19;100.00;102757.97;3581916;40;20053;-59
2021/04/25 03:55:03;;;;;;;10.75;2.42;;;;;;;5.17;100.00;102757.16;3580845;40;20389;-61
2021/04/25 03:57:29;;;;;;;6.18;2.05;;;;;;;5.08;100.00;102753.00;3582261;40;20045;-60
2021/04/25 03:59:55;;;;;;;11.30;2.95;;;;;;;5.02;100.00;102752.34;3582152;40;20049;-60
2021/04/25 04:02:21;;;;;;;6.57;2.03;;;;;;;5.00;100.00;102765.72;3580650;40;20481;-63
2021/04/25 04:04:47;;;;;;;7.65;2.40;;;;;;;5.09;100.00;102757.44;3582075;40;20044;-60
2021/04/25 04:07:13;;;;;;;7.10;2.33;;;;;;;5.06;100.00;102753.97;3581980;40;20331;-60
2021/04/25 04:09:39;;;;;;;11.05;2.88;;;;;;;5.09;100.00;102759.19;3581198;40;20035;-60
2021/04/25 04:12:07;;;;;;;9.98;2.78;;;;;;;5.05;100.00;102752.22;3580936;40;20048;-62
2021/04/25 04:14:33;;;;;;;10.98;3.20;;;;;;;5.08;100.00;102755.69;3580017;40;20195;-59
2021/04/25 04:16:59;;;;;;;10.57;2.63;;;;;;;5.14;100.00;102761.72;3581792;40;20307;-59
2021/04/25 04:19:25;;;;;;;7.20;3.00;;;;;;;5.14;100.00;102757.25;3579293;40;20403;-59
2021/04/25 04:21:51;;;;;;;8.00;2.97;;;;;;;5.19;100.00;102749.94;3580046;40;20049;-59
2021/04/25 04:24:17;;;;;;;8.38;2.47;;;;;;;5.14;100.00;102757.25;3579695;40;20067;-59
2021/04/25 04:26:43;;;;;;;8.55;2.70;;;;;;;5.25;100.00;102752.38;3582579;40;20710;-59
2021/04/25 04:29:10;;;;;;;5.65;2.30;;;;;;;5.24;100.00;102758.69;3581402;40;20052;-60
2021/04/25 04:31:36;;;;;;;5.47;2.50;;;;;;;5.26;100.00;102751.47;3581236;40;20302;-60
2021/04/25 04:34:03;;;;;;;9.85;2.85;;;;;;;5.17;100.00;102757.16;3580283;40;20063;-61
2021/04/25 04:36:29;;;;;;;8.07;2.67;;;;;;;5.24;100.00;102763.13;3581961;40;20049;-59
2021/04/25 04:38:55;;;;;;;10.05;3.15;;;;;;;5.24;100.00;102760.47;3580692;40;20056;-59
2021/04/25 04:41:21;;;;;;;10.65;2.72;;;;;;;5.20;100.00;102754.38;3581863;40;20346;-59
2021/04/25 04:43:47;;;;;;;7.18;2.80;;;;;;;5.18;100.00;102758.91;3581086;40;20041;-60
2021/04/25 04:46:14;;;;;;;9.30;3.00;;;;;;;5.35;100.00;102754.75;3580154;40;20358;-59
2021/04/25 04:48:40;;;;;;;7.45;3.42;;;;;;;5.34;100.00;102747.66;3581323;40;20318;-58
2021/04/25 04:51:06;;;;;;;9.43;2.55;;;;;;;5.34;100.00;102747.66;3582305;40;20055;-61
2021/04/25 04:53:32;;;;;;;7.72;2.90;;;;;;;5.30;100.00;102754.03;3580013;40;20138;-62
2021/04/25 04:55:58;;;;;;;7.35;2.60;;;;;;;5.33;100.00;102752.13;3581607;40;20053;-59
2021/04/25 04:58:24;;;;;;;8.32;2.95;;;;;;;5.34;100.00;102753.00;3581002;40;20134;-61
2021/04/25 05:00:50;;;;;;;7.95;2.83;;;;;;;5.40;100.00;102750.09;3582225;40;20061;-59
2021/04/25 05:03:16;;;;;;;8.05;2.40;;;;;;;5.52;100.00;102752.34;3581362;40;20032;-58
2021/04/25 05:05:42;;;;;;;14.70;3.28;;;;;;;5.37;100.00;102748.41;3580464;40;20162;-61
2021/04/25 05:08:08;;;;;;;7.97;3.17;;;;;;;5.31;100.00;102755.78;3581680;40;20056;-60
2021/04/25 05:10:34;;;;;;;10.68;2.92;;;;;;;5.32;100.00;102754.88;3579830;40;20059;-60
2021/04/25 05:13:00;;;;;;;7.40;2.90;;;;;;;5.32;100.00;102750.38;3580731;40;20303;-59
2021/04/25 05:15:26;;;;;;;6.82;2.88;;;;;;;5.39;100.00;102759.06;3581568;40;20044;-59
2021/04/25 05:17:52;;;;;;;8.82;3.05;;;;;;;5.44;100.00;102755.28;3580249;40;20138;-59
2021/04/25 05:20:19;;;;;;;8.15;3.00;;;;;;;5.44;100.00;102754.41;3580977;40;20055;-59
2021/04/25 05:22:45;;;;;;;12.52;2.88;;;;;;;5.52;100.00;102757.69;3581216;40;20052;-59
2021/04/25 05:25:12;;;;;;;7.90;2.92;;;;;;;5.46;100.00;102757.03;3580181;40;20387;-59
2021/04/25 05:27:38;;;;;;;10.20;2.65;;;;;;;5.34;100.00;102755.66;3581073;40;20033;-59
2021/04/25 05:30:05;;;;;;;8.57;3.15;;;;;;;5.43;100.00;102752.66;3580439;40;20414;-60
2021/04/25 05:32:31;;;;;;;12.18;3.08;;;;;;;5.41;100.00;102755.38;3580070;40;20391;-59
2021/04/25 05:34:57;;;;;;;14.77;3.15;;;;;;;5.51;100.00;102763.94;3580620;40;20067;-60
2021/04/25 05:37:25;;;;;;;10.88;3.42;;;;;;;5.46;100.00;102767.72;3580264;40;20053;-61
2021/04/25 05:39:51;;;;;;;7.53;3.47;;;;;;;5.45;100.00;102772.19;3580920;40;20167;-59
2021/04/25 05:42:16;;;;;;;7.13;2.80;;;;;;;5.59;100.00;102775.22;3581362;40;20314;-60
2021/04/25 05:44:42;;;;;;;7.60;2.80;;;;;;;5.40;100.00;102771.47;3581207;40;20251;-60
2021/04/25 05:47:08;;;;;;;9.35;2.58;;;;;;;5.47;100.00;102766.78;3579333;40;20052;-60
2021/04/25 05:52:02;;;;;;;6.85;2.50;;;;;;;5.50;100.00;102780.03;3600687;23;20045;-59
2021/04/25 05:54:29;;;;;;;6.40;2.72;;;;;;;5.49;100.00;102779.16;3570104;40;20409;-61
2021/04/25 05:56:55;;;;;;;6.82;2.42;;;;;;;5.59;100.00;102787.69;3571449;40;20065;-59
2021/04/25 05:59:20;;;;;;;6.88;2.47;;;;;;;5.59;100.00;102785.91;3570095;40;21425;-61
2021/04/25 06:04:49;;;;;;;8.02;2.65;;;;;;;5.64;100.00;102792.88;3589063;23;20060;-60
2021/04/25 06:07:15;;;;;;;5.78;2.40;;;;;;;5.70;100.00;102795.34;3570399;40;20415;-59
2021/04/25 06:09:42;;;;;;;6.60;1.80;;;;;;;5.68;100.00;102797.16;3569106;40;20158;-59
2021/04/25 06:12:11;;;;;;;6.88;1.90;;;;;;;5.69;100.00;102796.25;3568702;40;20142;-59
2021/04/25 06:14:37;;;;;;;10.27;2.10;;;;;;;5.65;100.00;102797.28;3570440;40;20315;-61
2021/04/25 06:17:03;;;;;;;6.53;1.90;;;;;;;5.69;100.00;102796.25;3569626;40;20039;-59
2021/04/25 06:19:29;;;;;;;6.85;1.95;;;;;;;5.69;100.00;102799.78;3570573;40;20045;-62
2021/04/25 06:21:55;;;;;;;10.43;2.10;;;;;;;5.68;100.00;102805.19;3570239;40;20052;-62
2021/04/25 06:24:21;;;;;;;7.72;1.95;;;;;;;5.58;100.00;102809.97;3570721;40;20069;-60
2021/04/25 06:26:48;;;;;;;10.30;2.00;;;;;;;5.69;100.00;102801.59;3570446;40;20101;-60
2021/04/25 06:29:14;;;;;;;5.70;1.67;;;;;;;5.82;100.00;102808.22;3569657;40;20041;-60
2021/04/25 06:31:40;;;;;;;7.68;2.17;;;;;;;5.95;100.00;102803.31;3570538;40;20037;-61
2021/04/25 06:34:06;;;;;;;8.05;2.20;;;;;;;5.95;100.00;102809.50;3569709;40;20307;-60
2021/04/25 06:36:32;;;;;;;5.35;1.92;;;;;;;5.93;100.00;102806.03;3570764;40;20049;-60
2021/04/25 06:38:58;;;;;;;9.13;2.10;;;;;;;5.91;100.00;102818.56;3570465;40;20126;-63
2021/04/25 06:41:24;;;;;;;6.10;2.00;;;;;;;6.04;100.00;102818.16;3570981;40;20061;-61
2021/04/25 06:43:51;;;;;;;5.90;2.05;;;;;;;6.08;100.00;102819.75;3570234;40;20052;-60
2021/04/25 06:46:17;;;;;;;6.55;1.85;;;;;;;5.96;99.88;102816.59;3571507;40;20056;-60
2021/04/25 06:48:43;;;;;;;7.40;2.00;;;;;;;5.92;100.00;102814.13;3571489;40;20044;-60
2021/04/25 06:51:09;;;;;;;5.57;1.90;;;;;;;6.08;100.00;102822.44;3570378;40;20033;-61
2021/04/25 06:53:36;;;;;;;6.32;1.98;;;;;;;6.06;98.59;102810.94;3571898;40;20072;-60
2021/04/25 06:56:01;;;;;;;9.02;1.80;;;;;;;6.20;100.00;102819.31;3571811;40;20069;-64
2021/04/25 06:58:27;;;;;;;11.18;2.60;;;;;;;6.27;98.31;102819.91;3571065;40;20057;-59
2021/04/25 07:00:54;;;;;;;8.02;2.20;;;;;;;6.18;99.99;102821.16;3571994;40;20037;-62
2021/04/25 07:03:20;;;;;;;10.70;2.10;;;;;;;6.29;100.00;102816.25;3571519;40;20721;-62
2021/04/25 07:05:46;;;;;;;7.32;2.03;;;;;;;6.44;98.72;102819.28;3571314;40;20053;-60
2021/04/25 07:08:13;;;;;;;5.80;1.55;;;;;;;6.48;98.22;102832.47;3572553;40;20144;-60
2021/04/25 07:10:39;;;;;;;5.20;1.88;;;;;;;6.16;99.01;102828.38;3570912;40;20062;-60
2021/04/25 07:13:05;;;;;;;9.90;2.22;;;;;;;6.32;100.00;102834.84;3571671;40;20323;-59
2021/04/25 07:15:31;;;;;;;9.18;1.95;;;;;;;6.37;97.63;102832.00;3571380;40;20045;-62
2021/04/25 07:17:59;;;;;;;8.38;2.05;;;;;;;6.42;98.25;102823.78;3572522;40;20110;-59
2021/04/25 07:20:25;;;;;;;7.20;2.03;;;;;;;6.36;99.18;102822.25;3570804;40;20051;-61
2021/04/25 07:22:52;;;;;;;9.02;1.67;;;;;;;6.45;99.41;102831.72;3572348;40;20065;-60
2021/04/25 07:25:18;;;;;;;13.57;2.08;;;;;;;6.32;100.00;102829.50;3569757;40;20920;-58
2021/04/25 07:27:44;;;;;;;5.28;1.90;;;;;;;6.71;100.00;102833.31;3571817;40;20063;-59
2021/04/25 07:30:12;;;;;;;8.05;2.13;;;;;;;6.72;96.88;102827.06;3571007;40;20053;-58
2021/04/25 07:32:38;;;;;;;10.50;1.98;;;;;;;6.85;96.37;102822.06;3571194;40;20037;-60
2021/04/25 07:35:07;;;;;;;9.25;1.77;;;;;;;6.81;97.69;102836.50;3571836;40;20077;-60
2021/04/25 07:37:33;;;;;;;7.88;2.00;;;;;;;6.97;93.97;102836.75;3572604;40;20465;-61
2021/04/25 07:42:44;;;;;;;5.22;1.83;;;;;;;7.06;93.42;102843.53;3595361;22;20281;-59
2021/04/25 07:45:13;;;;;;;9.48;2.22;;;;;;;6.89;95.90;102839.75;3581189;40;20041;-60
2021/04/25 07:47:39;;;;;;;10.15;2.10;;;;;;;7.01;97.68;102844.59;3581461;40;20056;-59
2021/04/25 07:50:07;;;;;;;6.85;2.15;;;;;;;6.84;96.60;102831.88;3580751;40;20053;-61
2021/04/25 07:52:34;;;;;;;9.20;1.93;;;;;;;7.01;94.40;102833.03;3580351;40;20069;-61
2021/04/25 07:55:00;;;;;;;5.45;2.05;;;;;;;6.97;93.38;102842.09;3581645;40;20117;-60
2021/04/25 07:57:26;;;;;;;9.10;1.83;;;;;;;6.94;94.14;102831.53;3582041;40;20137;-60
2021/04/25 07:59:52;;;;;;;8.48;1.63;;;;;;;7.01;90.89;102822.31;3581501;40;20053;-62
2021/04/25 08:02:20;;;;;;;8.65;1.70;;;;;;;7.11;92.40;102823.66;3581354;40;20036;-62
2021/04/25 08:04:46;;;;;;;6.18;1.83;;;;;;;6.98;94.17;102831.34;3581946;40;20390;-60
2021/04/25 08:07:13;;;;;;;7.13;1.85;;;;;;;7.30;93.15;102829.09;3581253;40;20044;-60
2021/04/25 08:09:39;;;;;;;6.28;1.83;;;;;;;7.29;91.67;102827.34;3581344;40;20042;-58
2021/04/25 08:12:06;;;;;;;7.40;1.70;;;;;;;7.29;93.56;102827.34;3581700;40;20392;-62
2021/04/25 08:14:32;;;;;;;7.85;2.08;;;;;;;7.60;91.91;102823.31;3582108;40;20044;-62
2021/04/25 08:16:58;;;;;;;5.05;1.60;;;;;;;7.63;87.42;102831.22;3582114;40;20056;-60
2021/04/25 08:19:24;;;;;;;12.73;2.15;;;;;;;7.44;87.95;102824.94;3575806;40;20057;-59
2021/04/25 08:21:50;;;;;;;5.82;1.70;;;;;;;7.52;89.03;102828.16;3582173;40;20073;-63
2021/04/25 08:24:17;;;;;;;4.28;1.75;;;;;;;7.57;87.54;102830.63;3581637;40;20057;-59
2021/04/25 08:26:43;;;;;;;5.22;1.63;;;;;;;7.54;87.28;102837.00;3581871;40;20048;-61
2021/04/25 08:29:09;;;;;;;9.63;1.88;;;;;;;7.32;89.42;102832.56;3581501;40;20415;-59
2021/04/25 08:31:35;;;;;;;10.35;2.00;;;;;;;7.60;89.09;102836.72;3582294;40;20047;-61
2021/04/25 08:34:01;;;;;;;10.63;1.80;;;;;;;7.60;91.18;102836.72;3581021;40;20053;-60
2021/04/25 08:36:27;;;;;;;6.28;1.73;;;;;;;7.63;86.59;102831.22;3580510;40;20160;-60
2021/04/25 08:38:53;;;;;;;8.73;2.10;;;;;;;7.62;90.37;102834.84;3581779;40;20048;-60
2021/04/25 08:41:21;;;;;;;5.43;2.03;;;;;;;7.85;88.40;102833.81;3580954;40;20396;-60
2021/04/25 08:43:48;;;;;;;8.10;1.88;;;;;;;7.80;85.19;102829.59;3580948;40;20165;-60
2021/04/25 08:46:18;;;;;;;12.68;1.90;;;;;;;8.00;87.15;102834.91;3581339;40;20088;-62
2021/04/25 08:48:47;;;;;;;7.95;2.08;;;;;;;8.07;84.09;102831.00;3579661;40;20048;-60
2021/04/25 08:51:13;;;;;;;6.95;1.70;;;;;;;7.96;85.52;102822.59;3580527;40;20088;-60
2021/04/25 08:53:40;;;;;;;5.68;2.00;;;;;;;7.97;82.32;102828.84;3581303;40;20055;-60
2021/04/25 08:56:06;;;;;;;6.93;2.28;;;;;;;8.05;83.18;102827.53;3580913;40;20060;-60
2021/04/25 08:58:34;;;;;;;7.13;1.63;;;;;;;8.15;85.96;102824.44;3580761;40;20064;-60
2021/04/25 09:01:00;;;;;;;6.10;2.30;;;;;;;8.27;85.34;102831.88;3581248;40;20137;-61
2021/04/25 09:03:26;;;;;;;8.13;1.83;;;;;;;8.26;86.33;102824.81;3580921;40;20048;-60
2021/04/25 09:05:52;;;;;;;10.90;2.35;;;;;;;8.59;85.56;102824.16;3580907;40;20052;-60
2021/04/25 09:08:18;;;;;;;8.68;2.40;;;;;;;8.67;82.28;102827.34;3579711;40;20121;-63
2021/04/25 09:10:46;;;;;;;6.28;1.90;;;;;;;8.76;81.58;102834.06;3578541;40;20318;-59
2021/04/25 09:13:17;;;;;;;4.85;1.65;;;;;;;8.64;81.33;102819.41;3580756;40;20421;-58
2021/04/25 09:15:44;;;;;;;5.50;1.90;;;;;;;8.34;78.24;102833.34;3579474;40;20091;-59
2021/04/25 09:18:11;;;;;;;7.40;1.58;;;;;;;8.53;79.93;102827.13;3579108;40;20049;-61
2021/04/25 09:20:39;;;;;;;7.38;1.83;;;;;;;8.61;77.63;102832.97;3579616;40;20047;-59
2021/04/25 09:23:06;;;;;;;5.53;1.95;;;;;;;9.01;76.36;102824.75;3579396;40;20040;-60
2021/04/25 09:25:33;;;;;;;8.57;2.28;;;;;;;9.27;72.78;102828.81;3580742;40;20080;-59
2021/04/25 09:28:11;;;;;;;7.47;2.00;;;;;;;9.07;73.17;102816.41;3580545;40;20041;-59
2021/04/25 09:30:38;;;;;;;9.65;1.98;;;;;;;9.01;73.05;102812.22;3579574;40;20052;-60
2021/04/25 09:33:09;;;;;;;10.38;2.05;;;;;;;9.40;71.04;102821.84;3579790;40;20116;-61
2021/04/25 09:35:36;;;;;;;5.65;1.70;;;;;;;8.94;74.58;102818.84;3580252;40;20056;-59
2021/04/25 09:38:10;;;;;;;5.78;1.52;;;;;;;8.94;72.21;102810.78;3579080;40;20600;-59
2021/04/25 09:40:41;;;;;;;8.18;1.80;;;;;;;9.04;72.86;102806.69;3580224;40;20061;-62
2021/04/25 09:43:09;;;;;;;9.20;2.13;;;;;;;9.08;72.45;102800.22;3579857;40;20050;-62
2021/04/25 09:45:37;;;;;;;12.50;1.80;;;;;;;9.16;71.16;102804.31;3579392;40;20080;-59
2021/04/25 09:48:24;;;;;;;10.05;1.45;;;;;;;9.26;71.36;102805.56;3579842;40;20056;-60
2021/04/25 09:51:11;;;;;;;7.25;1.67;;;;;;;9.25;71.58;102807.41;3580767;40;20416;-61
2021/04/25 09:53:37;;;;;;;5.57;1.77;;;;;;;9.20;70.92;102804.09;3579570;40;20089;-63
2021/04/25 09:56:05;;;;;;;6.57;1.92;;;;;;;9.55;71.24;102811.25;3580628;40;20117;-62
2021/04/25 09:58:31;;;;;;;4.72;1.70;;;;;;;9.66;70.42;102806.19;3580692;40;20138;-60
2021/04/25 10:00:57;;;;;;;5.47;1.83;;;;;;;9.99;67.52;102810.66;3580508;40;20057;-60
2021/04/25 10:03:34;;;;;;;8.32;2.00;;;;;;;9.51;71.64;102810.56;3580193;40;20296;-62
2021/04/25 10:06:01;;;;;;;6.75;1.45;;;;;;;9.67;71.52;102818.66;3580499;40;20064;-61
2021/04/25 10:08:29;;;;;;;10.57;2.25;;;;;;;9.78;69.04;102828.84;3580087;40;20058;-60
2021/04/25 10:10:55;;;;;;;9.40;1.88;;;;;;;9.29;72.88;102816.19;3581379;40;20054;-60
2021/04/25 10:13:21;;;;;;;4.68;1.85;;;;;;;9.87;69.99;102812.22;3581172;40;20232;-63
2021/04/25 10:15:47;;;;;;;7.13;2.00;;;;;;;9.95;69.14;102804.59;3581120;40;20073;-61
2021/04/25 10:18:17;;;;;;;5.75;2.08;;;;;;;9.99;69.11;102805.28;3580844;40;20045;-60
2021/04/25 10:20:44;;;;;;;6.50;1.95;;;;;;;10.14;67.68;102808.94;3581466;40;20045;-59
2021/04/25 10:23:10;;;;;;;6.82;1.90;;;;;;;10.08;68.33;102793.16;3582559;40;20063;-59
2021/04/25 10:25:37;;;;;;;3.90;1.48;;;;;;;10.44;68.46;102801.00;3582222;40;20045;-59
2021/04/25 10:28:09;;;;;;;8.43;2.00;;;;;;;10.14;68.20;102812.53;3581976;40;20114;-59
2021/04/25 10:30:39;;;;;;;6.85;1.60;;;;;;;10.17;70.71;102803.38;3581930;40;20052;-62
2021/04/25 10:33:05;;;;;;;6.30;2.03;;;;;;;10.26;67.60;102807.38;3581031;40;20120;-62
2021/04/25 10:35:34;;;;;;;4.70;1.80;;;;;;;10.08;66.96;102796.69;3580758;40;20064;-60
2021/04/25 10:38:02;;;;;;;10.07;1.90;;;;;;;9.98;68.22;102800.84;3583152;40;20433;-59
2021/04/25 10:40:34;;;;;;;5.65;1.98;;;;;;;10.05;70.34;102791.50;3582545;40;20052;-59
2021/04/25 10:43:06;;;;;;;10.38;2.00;;;;;;;10.41;67.57;102790.41;3581057;40;20158;-63
2021/04/25 10:45:35;;;;;;;6.32;1.90;;;;;;;10.38;65.54;102787.91;3581228;40;20053;-60
2021/04/25 10:48:25;;;;;;;8.65;2.33;;;;;;;10.68;65.22;102779.00;3581534;40;20044;-63
2021/04/25 10:50:53;;;;;;;5.18;1.88;;;;;;;10.48;67.24;102772.97;3582592;40;20309;-60
2021/04/25 10:53:25;;;;;;;5.57;1.90;;;;;;;10.91;66.53;102766.00;3582540;40;20037;-62
2021/04/25 10:56:07;;;;;;;11.13;1.85;;;;;;;10.86;64.71;102769.84;3582218;40;20336;-61
2021/04/25 10:58:33;;;;;;;6.90;1.80;;;;;;;10.58;63.64;102764.34;3580821;40;20080;-61
2021/04/25 11:00:59;;;;;;;8.40;2.00;;;;;;;10.70;62.21;102771.69;3580974;40;20519;-62
2021/04/25 11:03:40;;;;;;;5.80;2.22;;;;;;;10.48;63.15;102772.97;3581502;40;20047;-60
2021/04/25 11:06:23;;;;;;;9.18;2.05;;;;;;;10.30;63.49;102760.50;3581187;40;20048;-60
2021/04/25 11:08:50;;;;;;;7.82;1.88;;;;;;;10.38;64.96;102766.38;3582126;40;20052;-62
2021/04/25 11:11:29;;;;;;;5.35;2.17;;;;;;;10.87;65.79;102760.78;3581741;40;20078;-62
2021/04/25 11:13:57;;;;;;;11.90;3.22;;;;;;;10.78;62.91;102771.25;3581683;40;20049;-60
2021/04/25 11:16:29;;;;;;;8.27;1.85;;;;;;;10.71;63.42;102778.81;3580925;40;20381;-59
2021/04/25 11:19:00;;;;;;;8.30;2.13;;;;;;;10.75;65.27;102771.41;3580746;40;20045;-59
2021/04/25 11:21:50;;;;;;;5.45;2.10;;;;;;;10.82;60.23;102765.59;3581783;40;20037;-59
2021/04/25 11:24:28;;;;;;;5.18;1.88;;;;;;;10.91;59.43;102766.00;3582213;40;20075;-60
2021/04/25 11:26:56;;;;;;;7.35;2.03;;;;;;;9.89;65.11;102771.78;3580745;40;20044;-59
2021/04/25 11:29:43;;;;;;;7.90;2.17;;;;;;;10.48;63.36;102764.00;3580190;40;20037;-60
2021/04/25 11:32:24;;;;;;;6.22;1.98;;;;;;;10.66;67.14;102765.63;3579435;40;20398;-60
2021/04/25 11:34:58;;;;;;;8.45;2.35;;;;;;;10.95;64.81;102762.16;3582973;40;20052;-60
2021/04/25 11:37:25;;;;;;;6.50;2.30;;;;;;;11.14;60.53;102754.69;3580306;40;20048;-59